createdAt,value
2022-10-25T00:01:03.582Z,98.31
2022-10-25T00:03:34.610Z,98.18
2022-10-25T00:06:04.893Z,97.92
2022-10-25T00:08:33.444Z,98.38
2022-10-25T00:11:02.059Z,98.37
2022-10-25T00:13:30.663Z,98.24
2022-10-25T00:15:59.389Z,98.07
2022-10-25T00:18:28.051Z,98.25
2022-10-25T00:20:58.094Z,97.78
2022-10-25T00:23:26.724Z,97.92
2022-10-25T00:26:02.962Z,98.42
2022-10-25T00:28:31.541Z,97.89
2022-10-25T00:31:03.283Z,98.00
2022-10-25T00:33:32.471Z,97.91
2022-10-25T00:36:07.564Z,98.53
2022-10-25T00:38:36.870Z,98.27
2022-10-25T00:41:07.221Z,98.53
2022-10-25T00:43:38.083Z,98.38
2022-10-25T00:46:12.796Z,97.85
2022-10-25T00:48:44.100Z,98.12
2022-10-25T00:51:14.192Z,97.85
2022-10-25T00:53:44.169Z,98.14
2022-10-25T00:56:18.810Z,98.12
2022-10-25T00:58:51.109Z,97.89
2022-10-25T01:01:20.509Z,98.03
2022-10-25T01:03:51.664Z,97.56
2022-10-25T01:06:29.751Z,97.87
2022-10-25T01:08:59.244Z,98.11
2022-10-25T01:11:27.812Z,97.77
2022-10-25T01:13:58.814Z,97.81
2022-10-25T01:16:34.283Z,97.51
2022-10-25T01:19:18.419Z,97.80
2022-10-25T01:21:51.483Z,97.59
2022-10-25T01:24:54.761Z,97.93
2022-10-25T01:27:50.548Z,97.58
2022-10-25T01:30:22.872Z,97.68
2022-10-25T01:33:06.444Z,98.07
2022-10-25T01:35:44.321Z,97.74
2022-10-25T01:38:28.904Z,98.29
2022-10-25T01:41:08.793Z,98.17
2022-10-25T01:43:48.701Z,97.88
2022-10-25T01:46:23.973Z,98.12
2022-10-25T01:49:00.951Z,98.04
2022-10-25T01:51:30.080Z,98.44
2022-10-25T01:53:58.842Z,98.38
2022-10-25T01:56:31.501Z,98.20
2022-10-25T01:59:26.665Z,98.49
2022-10-25T02:02:07.204Z,98.74
2022-10-25T02:04:51.814Z,98.22
2022-10-25T02:07:28.250Z,98.20
2022-10-25T02:12:49.197Z,98.33
2022-10-25T02:15:26.093Z,98.57
2022-10-25T02:18:01.020Z,98.72
2022-10-25T02:20:36.193Z,99.15
2022-10-25T02:23:07.393Z,98.75
2022-10-25T02:25:39.144Z,98.94
2022-10-25T02:28:14.413Z,98.84
2022-10-25T02:30:45.640Z,98.78
2022-10-25T02:33:15.761Z,98.99
2022-10-25T02:35:45.760Z,98.81
2022-10-25T02:38:14.561Z,98.82
2022-10-25T02:40:43.170Z,99.10
2022-10-25T02:43:13.269Z,99.43
2022-10-25T02:45:41.898Z,98.97
2022-10-25T02:48:10.429Z,99.23
2022-10-25T02:50:39.017Z,99.42
2022-10-25T02:53:09.034Z,98.98
2022-10-25T02:55:38.984Z,99.35
2022-10-25T02:58:07.570Z,99.22
2022-10-25T03:00:36.231Z,98.85
2022-10-25T03:03:05.223Z,98.92
2022-10-25T03:06:24.257Z,98.89
2022-10-25T03:09:19.980Z,98.67
2022-10-25T03:11:53.804Z,98.62
2022-10-25T03:14:22.373Z,98.55
2022-10-25T03:17:16.433Z,98.48
2022-10-25T03:20:11.305Z,98.61
2022-10-25T03:22:42.734Z,98.14
2022-10-25T03:25:13.181Z,98.08
2022-10-25T03:27:42.980Z,98.23
2022-10-25T03:30:13.922Z,98.17
2022-10-25T03:33:07.645Z,98.08
2022-10-25T03:35:37.534Z,98.00
2022-10-25T03:38:06.198Z,97.76
2022-10-25T03:40:36.266Z,97.70
2022-10-25T03:43:30.276Z,97.79
2022-10-25T03:46:00.330Z,97.92
2022-10-25T03:48:29.025Z,97.80
2022-10-25T03:50:58.505Z,97.66
2022-10-25T03:53:33.687Z,97.48
2022-10-25T03:56:04.519Z,97.65
2022-10-25T03:58:58.585Z,97.76
2022-10-25T04:01:27.309Z,97.67
2022-10-25T04:04:02.024Z,97.80
2022-10-25T04:06:31.517Z,97.50
2022-10-25T04:09:04.337Z,97.66
2022-10-25T04:11:59.523Z,97.71
2022-10-25T04:14:53.788Z,97.67
2022-10-25T04:17:25.053Z,97.62
2022-10-25T04:19:53.627Z,97.37
2022-10-25T04:22:47.564Z,97.30
2022-10-25T04:25:16.266Z,97.04
2022-10-25T04:27:46.710Z,97.24
2022-10-25T04:30:17.637Z,97.33
2022-10-25T04:32:46.535Z,97.16
2022-10-25T04:35:15.608Z,97.12
2022-10-25T04:37:47.540Z,97.07
2022-10-25T04:40:17.483Z,96.59
2022-10-25T04:42:51.377Z,96.85
2022-10-25T04:45:21.611Z,96.92
2022-10-25T04:47:50.345Z,96.52
2022-10-25T04:50:45.303Z,96.56
2022-10-25T04:53:39.598Z,96.50
2022-10-25T04:56:15.279Z,96.60
2022-10-25T04:58:45.240Z,96.69
2022-10-25T05:01:18.706Z,96.81
2022-10-25T05:04:12.426Z,96.88
2022-10-25T05:06:46.129Z,96.69
2022-10-25T05:09:14.807Z,96.79
2022-10-25T05:12:33.329Z,96.82
2022-10-25T05:15:24.347Z,97.01
2022-10-25T05:17:58.558Z,96.75
2022-10-25T05:20:55.597Z,97.19
2022-10-25T05:23:26.268Z,96.85
2022-10-25T05:26:03.020Z,96.87
2022-10-25T05:28:33.417Z,96.94
2022-10-25T05:34:11.097Z,97.07
2022-10-25T05:37:04.657Z,96.77
2022-10-25T05:39:33.817Z,96.82
2022-10-25T05:42:06.739Z,97.26
2022-10-25T05:44:37.027Z,97.28
2022-10-25T05:47:07.549Z,97.29
2022-10-25T05:50:02.659Z,97.07
2022-10-25T05:52:32.906Z,97.26
2022-10-25T05:55:01.628Z,97.14
2022-10-25T05:57:57.128Z,97.41
2022-10-25T06:00:26.007Z,97.11
2022-10-25T06:02:56.047Z,97.36
2022-10-25T06:05:49.476Z,97.54
2022-10-25T06:08:43.717Z,97.38
2022-10-25T06:11:39.088Z,97.38
2022-10-25T06:14:12.468Z,97.17
2022-10-25T06:17:08.403Z,97.45
2022-10-25T06:20:04.117Z,97.29
2022-10-25T06:22:57.906Z,97.22
2022-10-25T06:25:26.627Z,97.31
2022-10-25T06:27:55.851Z,97.43
2022-10-25T06:30:24.450Z,97.90
2022-10-25T06:32:57.672Z,97.73
2022-10-25T06:35:30.137Z,97.89
2022-10-25T06:38:23.739Z,97.58
2022-10-25T06:41:20.292Z,97.77
2022-10-25T06:44:14.366Z,98.23
2022-10-25T06:47:17.525Z,97.94
2022-10-25T06:50:11.342Z,98.06
2022-10-25T06:52:42.625Z,98.06
2022-10-25T06:55:36.755Z,97.66
2022-10-25T06:58:05.289Z,97.67
2022-10-25T07:00:58.299Z,98.21
2022-10-25T07:03:35.382Z,98.22
2022-10-25T07:06:35.908Z,98.15
2022-10-25T07:09:31.809Z,97.67
2022-10-25T07:12:25.597Z,98.11
2022-10-25T07:14:58.313Z,97.98
2022-10-25T07:17:27.172Z,97.95
2022-10-25T07:20:00.459Z,98.19
2022-10-25T07:22:28.940Z,97.58
2022-10-25T07:25:24.009Z,98.18
2022-10-25T07:28:01.518Z,98.18
2022-10-25T07:30:55.567Z,97.95
2022-10-25T07:33:27.305Z,98.19
2022-10-25T07:36:16.671Z,97.90
2022-10-25T07:38:46.009Z,98.34
2022-10-25T07:41:21.058Z,97.53
2022-10-25T07:44:17.454Z,97.67
2022-10-25T07:47:12.609Z,97.89
2022-10-25T07:50:07.028Z,97.63
2022-10-25T07:53:00.741Z,98.36
2022-10-25T07:55:35.093Z,98.08
2022-10-25T07:58:07.070Z,98.38
2022-10-25T08:01:04.095Z,98.01
2022-10-25T08:03:33.359Z,98.20
2022-10-25T08:06:03.028Z,97.90
2022-10-25T08:08:31.390Z,98.00
2022-10-25T08:11:00.493Z,97.48
2022-10-25T08:13:30.331Z,97.49
2022-10-25T08:15:58.900Z,97.54
2022-10-25T08:18:27.872Z,97.47
2022-10-25T08:21:02.478Z,96.96
2022-10-25T08:23:32.620Z,96.93
2022-10-25T08:26:01.304Z,96.47
2022-10-25T08:28:31.835Z,96.18
2022-10-25T08:31:01.446Z,95.69
2022-10-25T08:33:30.730Z,95.17
2022-10-25T08:36:02.290Z,94.34
2022-10-25T08:38:31.074Z,93.57
2022-10-25T08:41:07.077Z,92.90
2022-10-25T08:43:55.767Z,92.07
2022-10-25T08:46:29.049Z,90.99
2022-10-25T08:49:10.754Z,90.12
2022-10-25T08:51:42.190Z,89.29
2022-10-25T08:54:22.799Z,89.27
2022-10-25T08:57:10.686Z,88.20
2022-10-25T08:59:51.960Z,87.38
2022-10-25T09:02:35.123Z,87.05
2022-10-25T09:05:03.959Z,86.27
2022-10-25T09:07:52.153Z,85.39
2022-10-25T09:10:37.309Z,84.66
2022-10-25T09:13:43.759Z,84.54
2022-10-25T09:16:50.280Z,83.75
2022-10-25T09:19:33.850Z,84.00
2022-10-25T09:22:30.422Z,83.47
2022-10-25T09:25:14.051Z,82.95
2022-10-25T09:27:53.622Z,82.26
2022-10-25T09:30:22.819Z,81.69
2022-10-25T09:32:56.966Z,81.33
2022-10-25T09:35:29.792Z,80.14
2022-10-25T09:38:03.761Z,79.87
2022-10-25T09:41:01.730Z,79.69
2022-10-25T09:44:01.743Z,79.70
2022-10-25T09:46:38.953Z,79.56
2022-10-25T09:49:38.901Z,79.11
2022-10-25T09:52:21.019Z,79.15
2022-10-25T09:55:32.731Z,78.95
2022-10-25T09:58:30.604Z,78.89
2022-10-25T10:01:06.352Z,78.97
2022-10-25T10:03:38.191Z,78.71
2022-10-25T10:06:17.322Z,78.75
2022-10-25T10:08:52.692Z,78.62
2022-10-25T10:11:24.984Z,78.66
2022-10-25T10:14:28.310Z,78.26
2022-10-25T10:17:24.752Z,77.92
2022-10-25T10:20:17.993Z,77.25
2022-10-25T10:22:53.676Z,77.51
2022-10-25T10:25:26.881Z,77.42
2022-10-25T10:27:59.761Z,77.37
2022-10-25T10:30:31.181Z,77.16
2022-10-25T10:33:03.321Z,77.02
2022-10-25T10:35:34.644Z,76.85
2022-10-25T10:38:16.216Z,76.88
2022-10-25T10:40:47.872Z,76.61
2022-10-25T10:43:31.195Z,75.76
2022-10-25T10:46:05.811Z,74.69
2022-10-25T10:48:41.883Z,73.71
2022-10-25T10:51:32.021Z,72.27
2022-10-25T10:54:23.218Z,71.77
2022-10-25T10:57:00.946Z,71.12
2022-10-25T10:59:39.127Z,71.12
2022-10-25T11:02:23.928Z,71.44
2022-10-25T11:04:54.871Z,71.00
2022-10-25T11:07:30.693Z,70.58
2022-10-25T11:10:21.235Z,70.04
2022-10-25T11:13:07.840Z,69.24
2022-10-25T11:15:50.797Z,68.38
2022-10-25T11:18:28.664Z,67.63
2022-10-25T11:21:06.367Z,66.63
2022-10-25T11:23:46.916Z,66.08
2022-10-25T11:26:25.247Z,65.28
2022-10-25T11:29:04.126Z,63.74
2022-10-25T11:31:47.456Z,63.54
2022-10-25T11:34:25.669Z,63.72
2022-10-25T11:37:07.842Z,62.60
2022-10-25T11:39:53.215Z,62.69
2022-10-25T11:42:58.069Z,62.57
2022-10-25T11:45:52.254Z,61.37
2022-10-25T11:48:54.128Z,60.99
2022-10-25T11:51:32.219Z,61.18
2022-10-25T11:54:13.815Z,61.25
2022-10-25T11:56:55.531Z,60.49
2022-10-25T11:59:35.941Z,60.62
2022-10-25T12:02:22.654Z,61.09
2022-10-25T12:05:15.209Z,60.98
2022-10-25T12:07:51.468Z,60.92
2022-10-25T12:10:28.795Z,60.66
2022-10-25T12:13:02.349Z,60.67
2022-10-25T12:15:39.846Z,60.98
2022-10-25T12:18:15.907Z,61.04
2022-10-25T12:20:47.897Z,60.88
2022-10-25T12:23:20.277Z,60.62
2022-10-25T12:25:52.099Z,59.83
2022-10-25T12:28:29.328Z,59.44
2022-10-25T12:31:03.626Z,58.89
2022-10-25T12:33:38.312Z,57.98
2022-10-25T12:36:13.650Z,57.55
2022-10-25T12:38:42.938Z,57.72
2022-10-25T12:41:19.372Z,57.41
2022-10-25T12:44:04.455Z,57.80
2022-10-25T12:46:55.058Z,58.01
2022-10-25T12:49:58.633Z,58.36
2022-10-25T12:52:34.056Z,58.59
2022-10-25T12:55:31.726Z,59.44
2022-10-25T12:58:14.318Z,59.60
2022-10-25T13:01:01.923Z,60.40
2022-10-25T13:04:12.795Z,61.43
2022-10-25T13:06:45.916Z,62.34
2022-10-25T13:09:17.435Z,63.24
2022-10-25T13:12:01.796Z,64.03
2022-10-25T13:14:33.521Z,64.45
2022-10-25T13:17:23.960Z,64.04
2022-10-25T13:19:54.986Z,64.10
2022-10-25T13:22:37.787Z,64.30
2022-10-25T13:25:19.648Z,63.63
2022-10-25T13:28:10.002Z,62.53
2022-10-25T13:30:38.774Z,61.88
2022-10-25T13:33:33.931Z,61.38
2022-10-25T13:36:05.779Z,60.73
2022-10-25T13:38:39.943Z,60.19
2022-10-25T13:41:15.495Z,59.76
2022-10-25T13:43:59.865Z,59.41
2022-10-25T13:46:34.088Z,59.34
2022-10-25T13:49:06.144Z,59.48
2022-10-25T13:51:34.618Z,59.53
2022-10-25T13:54:11.647Z,59.85
2022-10-25T13:56:52.635Z,60.45
2022-10-25T13:59:56.943Z,60.58
2022-10-25T14:02:25.815Z,61.01
2022-10-25T14:04:54.267Z,61.67
2022-10-25T14:07:44.840Z,61.34
2022-10-25T14:10:30.429Z,61.58
2022-10-25T14:13:16.400Z,62.46
2022-10-25T14:15:55.888Z,63.50
2022-10-25T14:18:25.377Z,64.29
2022-10-25T14:20:57.476Z,64.79
2022-10-25T14:23:33.358Z,65.72
2022-10-25T14:26:06.608Z,66.22
2022-10-25T14:28:36.389Z,66.74
2022-10-25T14:31:07.171Z,67.30
2022-10-25T14:33:40.890Z,67.94
2022-10-25T14:36:13.126Z,68.46
2022-10-25T14:38:52.580Z,69.15
2022-10-25T14:41:25.497Z,70.01
2022-10-25T14:43:54.725Z,70.61
2022-10-25T14:46:24.551Z,70.58
2022-10-25T14:48:58.139Z,70.50
2022-10-25T14:51:29.809Z,70.57
2022-10-25T14:54:02.957Z,70.47
2022-10-25T14:56:37.537Z,69.94
2022-10-25T14:59:17.625Z,70.25
2022-10-25T15:01:54.364Z,71.09
2022-10-25T15:04:34.389Z,72.20
2022-10-25T15:07:04.511Z,71.80
2022-10-25T15:09:49.032Z,71.48
2022-10-25T15:12:21.647Z,71.48
2022-10-25T15:14:50.256Z,71.13
2022-10-25T15:17:28.620Z,70.85
2022-10-25T15:20:03.066Z,70.62
2022-10-25T15:22:34.345Z,70.99
2022-10-25T15:25:02.915Z,71.41
2022-10-25T15:27:41.960Z,71.88
2022-10-25T15:30:36.267Z,72.34
2022-10-25T15:33:09.630Z,72.45
2022-10-25T15:35:47.689Z,72.50
2022-10-25T15:38:17.989Z,72.49
2022-10-25T15:40:47.348Z,72.45
2022-10-25T15:43:17.537Z,72.38
2022-10-25T15:45:47.028Z,73.03
2022-10-25T15:48:17.595Z,73.47
2022-10-25T15:50:50.238Z,73.32
2022-10-25T15:53:18.763Z,73.80
2022-10-25T15:55:47.516Z,74.09
2022-10-25T15:58:17.607Z,74.09
2022-10-25T16:00:48.301Z,74.41
2022-10-25T16:03:22.548Z,74.40
2022-10-25T16:05:52.336Z,74.47
2022-10-25T16:08:20.590Z,74.89
2022-10-25T16:10:49.328Z,75.33
2022-10-25T16:13:27.597Z,75.19
2022-10-25T16:15:56.337Z,75.76
2022-10-25T16:20:58.188Z,75.72
2022-10-25T16:23:28.349Z,76.17
2022-10-25T16:25:57.273Z,76.66
2022-10-25T16:28:27.045Z,76.89
2022-10-25T16:30:55.543Z,77.40
2022-10-25T16:33:23.969Z,77.66
2022-10-25T16:35:52.980Z,77.71
2022-10-25T16:38:21.459Z,78.07
2022-10-25T16:40:50.101Z,78.29
2022-10-25T16:43:19.048Z,78.15
2022-10-25T16:45:49.030Z,78.32
2022-10-25T16:48:17.579Z,78.34
2022-10-25T16:50:46.176Z,78.60
2022-10-25T16:53:16.351Z,78.88
2022-10-25T16:55:45.013Z,79.26
2022-10-25T16:58:13.558Z,78.88
2022-10-25T17:00:42.376Z,79.14
2022-10-25T17:03:12.720Z,79.10
2022-10-25T17:05:41.330Z,79.57
2022-10-25T17:08:09.835Z,79.37
2022-10-25T17:10:42.472Z,79.98
2022-10-25T17:13:16.063Z,79.68
2022-10-25T17:15:44.750Z,80.23
2022-10-25T17:18:19.615Z,80.09
2022-10-25T17:20:49.288Z,80.14
2022-10-25T17:23:17.579Z,79.77
2022-10-25T17:25:46.009Z,80.23
2022-10-25T17:28:14.650Z,80.62
2022-10-25T17:30:43.449Z,80.18
2022-10-25T17:33:12.106Z,80.65
2022-10-25T17:35:43.908Z,81.04
2022-10-25T17:38:12.909Z,81.05
2022-10-25T17:40:42.089Z,81.49
2022-10-25T17:43:11.888Z,81.57
2022-10-25T17:45:40.149Z,81.82
2022-10-25T17:48:08.689Z,82.22
2022-10-25T17:50:41.104Z,81.76
2022-10-25T17:53:11.635Z,82.25
2022-10-25T17:55:41.518Z,82.14
2022-10-25T17:58:10.058Z,82.18
2022-10-25T18:00:38.492Z,83.02
2022-10-25T18:03:07.037Z,82.91
2022-10-25T18:05:36.130Z,83.29
2022-10-25T18:08:04.697Z,83.35
2022-10-25T18:10:36.309Z,83.86
2022-10-25T18:13:04.829Z,84.16
2022-10-25T18:15:35.286Z,84.30
2022-10-25T18:18:03.795Z,84.08
2022-10-25T18:20:32.719Z,84.01
2022-10-25T18:23:01.327Z,84.11
2022-10-25T18:25:29.895Z,84.20
2022-10-25T18:27:59.896Z,84.31
2022-10-25T18:30:28.609Z,84.24
2022-10-25T18:32:57.147Z,84.02
2022-10-25T18:35:25.648Z,83.98
2022-10-25T18:37:54.203Z,84.33
2022-10-25T18:40:22.887Z,83.92
2022-10-25T18:42:51.416Z,84.16
2022-10-25T18:45:21.500Z,83.91
2022-10-25T18:47:53.486Z,84.00
2022-10-25T18:50:22.049Z,83.79
2022-10-25T18:52:50.575Z,83.87
2022-10-25T18:55:21.689Z,83.96
2022-10-25T18:57:50.531Z,84.03
2022-10-25T19:00:23.117Z,84.07
2022-10-25T19:02:54.169Z,84.07
2022-10-25T19:05:23.436Z,84.46
2022-10-25T19:07:52.539Z,84.57
2022-10-25T19:10:21.203Z,84.84
2022-10-25T19:12:49.720Z,84.87
2022-10-25T19:15:18.358Z,84.70
2022-10-25T19:17:52.098Z,84.77
2022-10-25T19:20:20.709Z,85.04
2022-10-25T19:22:49.690Z,84.80
2022-10-25T19:25:21.538Z,84.25
2022-10-25T19:27:52.729Z,84.27
2022-10-25T19:30:21.336Z,84.42
2022-10-25T19:32:51.500Z,84.01
2022-10-25T19:35:20.969Z,84.09
2022-10-25T19:37:50.782Z,84.52
2022-10-25T19:40:19.718Z,84.03
2022-10-25T19:42:48.250Z,83.93
2022-10-25T19:45:16.849Z,84.09
2022-10-25T19:47:46.181Z,84.35
2022-10-25T19:50:16.488Z,84.47
2022-10-25T19:52:46.697Z,84.51
2022-10-25T19:55:15.127Z,84.49
2022-10-25T19:57:43.827Z,84.93
2022-10-25T20:00:13.703Z,84.77
2022-10-25T20:02:42.431Z,84.82
2022-10-25T20:07:46.429Z,84.96
2022-10-25T20:10:15.618Z,84.83
2022-10-25T20:12:44.317Z,84.71
2022-10-25T20:15:17.131Z,84.75
2022-10-25T20:17:45.943Z,84.73
2022-10-25T20:20:14.706Z,85.26
2022-10-25T20:22:43.681Z,85.22
2022-10-25T20:27:42.316Z,85.01
2022-10-25T20:30:11.455Z,85.00
2022-10-25T20:32:40.030Z,85.08
2022-10-25T20:35:09.036Z,85.42
2022-10-25T20:37:37.671Z,85.02
2022-10-25T20:40:08.069Z,84.92
2022-10-25T20:42:38.157Z,85.21
2022-10-25T20:45:07.395Z,85.06
2022-10-25T20:47:35.945Z,85.30
2022-10-25T20:50:04.748Z,85.29
2022-10-25T20:52:34.776Z,85.40
2022-10-25T20:55:04.257Z,85.43
2022-10-25T20:57:33.760Z,85.48
2022-10-25T21:00:03.614Z,85.39
2022-10-25T21:02:32.081Z,85.67
2022-10-25T21:05:00.800Z,85.59
2022-10-25T21:07:31.297Z,85.68
2022-10-25T21:10:00.221Z,85.43
2022-10-25T21:12:28.827Z,85.59
2022-10-25T21:14:57.566Z,85.38
2022-10-25T21:17:27.468Z,85.36
2022-10-25T21:19:56.070Z,85.29
2022-10-25T21:22:24.760Z,85.27
2022-10-25T21:24:53.447Z,85.29
2022-10-25T21:27:21.959Z,85.07
2022-10-25T21:29:51.021Z,85.35
2022-10-25T21:32:19.551Z,85.07
2022-10-25T21:34:49.630Z,85.22
2022-10-25T21:37:18.233Z,85.36
2022-10-25T21:39:48.088Z,85.58
2022-10-25T21:42:16.698Z,85.53
2022-10-25T21:44:45.269Z,85.38
2022-10-25T21:47:13.938Z,85.12
2022-10-25T21:49:42.369Z,85.23
2022-10-25T21:52:12.799Z,84.90
2022-10-25T21:54:41.380Z,84.81
2022-10-25T21:57:10.476Z,84.92
2022-10-25T21:59:39.038Z,84.60
2022-10-25T22:02:07.926Z,85.15
2022-10-25T22:04:36.566Z,85.27
2022-10-25T22:07:05.201Z,85.23
2022-10-25T22:09:35.113Z,84.81
2022-10-25T22:12:03.950Z,84.93
2022-10-25T22:14:32.776Z,85.03
2022-10-25T22:17:01.295Z,85.23
2022-10-25T22:19:29.870Z,85.21
2022-10-25T22:21:58.500Z,85.44
2022-10-25T22:24:27.097Z,85.68
2022-10-25T22:26:57.119Z,85.56
2022-10-25T22:29:25.755Z,85.58
2022-10-25T22:31:54.299Z,85.62
2022-10-25T22:34:22.829Z,85.07
2022-10-25T22:36:51.790Z,85.51
2022-10-25T22:39:20.278Z,85.33
2022-10-25T22:41:53.098Z,84.80
2022-10-25T22:44:23.224Z,85.07
2022-10-25T22:46:51.765Z,85.35
2022-10-25T22:49:21.987Z,84.95
2022-10-25T22:51:50.409Z,85.44
2022-10-25T22:54:18.938Z,85.10
2022-10-25T22:56:47.569Z,85.51
2022-10-25T22:59:16.076Z,85.35
2022-10-25T23:01:45.926Z,85.05
2022-10-25T23:04:14.916Z,85.31
2022-10-25T23:06:43.378Z,84.99
2022-10-25T23:09:12.599Z,85.20
2022-10-25T23:11:42.071Z,84.95
2022-10-25T23:14:14.997Z,84.97
2022-10-25T23:16:48.007Z,84.68
2022-10-25T23:19:16.711Z,84.99
2022-10-25T23:21:45.303Z,84.78
2022-10-25T23:24:13.995Z,84.69
2022-10-25T23:26:42.570Z,85.21
2022-10-25T23:29:13.646Z,84.51
2022-10-25T23:31:42.309Z,84.98
2022-10-25T23:34:12.613Z,84.41
2022-10-25T23:36:41.668Z,84.04
2022-10-25T23:39:10.129Z,84.77
2022-10-25T23:41:39.315Z,84.51
2022-10-25T23:44:07.809Z,84.20
2022-10-25T23:46:36.491Z,84.71
2022-10-25T23:49:05.028Z,84.38
2022-10-25T23:51:35.136Z,84.33
2022-10-25T23:54:04.048Z,84.83
2022-10-25T23:56:32.597Z,84.58
2022-10-25T23:59:01.253Z,84.75
